Time;durP1;ratioP1;P1;durP2;ratioP2;P2;SDS_P1;SDS_P2;PMS_P1;PMS_P2;Temp;Humidity;BMP_temperature;BMP_pressure;BME280_temperature;BME280_humidity;BME280_pressure;Samples;Min_cycle;Max_cycle;Signal;HPM_P1;HPM_P2
2021/01/31 00:00:38;;;;;;;8.45;6.70;;;3.60;99.90;;;;;;5019723;28;20036;-89
2021/01/31 00:03:07;;;;;;;10.18;6.85;;;3.60;99.90;;;;;;5035846;28;20021;-89
2021/01/31 00:05:34;;;;;;;8.27;7.22;;;3.50;99.90;;;;;;5054196;28;20017;-88
2021/01/31 00:08:00;;;;;;;8.70;7.80;;;3.50;99.90;;;;;;5036737;28;20567;-89
2021/01/31 00:10:29;;;;;;;7.90;7.03;;;3.40;99.90;;;;;;5035897;28;20033;-89
2021/01/31 00:12:56;;;;;;;7.75;6.97;;;3.50;99.90;;;;;;5054556;28;20104;-89
2021/01/31 00:15:26;;;;;;;7.10;6.40;;;3.40;99.90;;;;;;5036349;28;20025;-88
2021/01/31 00:17:52;;;;;;;7.85;6.75;;;3.50;99.90;;;;;;5036264;28;20025;-89
2021/01/31 00:20:20;;;;;;;6.85;6.13;;;3.60;99.90;;;;;;5036219;28;20025;-89
2021/01/31 00:22:46;;;;;;;7.75;6.53;;;3.50;99.90;;;;;;5036143;28;20401;-88
2021/01/31 00:25:13;;;;;;;6.75;5.90;;;3.30;99.90;;;;;;5054345;28;20025;-89
2021/01/31 00:27:39;;;;;;;8.10;6.57;;;3.40;99.90;;;;;;5036073;28;20021;-89
2021/01/31 00:30:26;;;;;;;9.27;6.65;;;3.40;99.90;;;;;;5035965;28;20491;-89
2021/01/31 00:32:52;;;;;;;7.47;6.68;;;3.50;99.90;;;;;;5036133;28;20473;-89
2021/01/31 00:35:19;;;;;;;6.22;5.63;;;3.40;99.90;;;;;;5036183;28;20031;-89
2021/01/31 00:37:45;;;;;;;7.60;6.10;;;3.40;99.90;;;;;;5035906;28;20037;-88
2021/01/31 00:40:11;;;;;;;7.32;6.32;;;3.40;99.90;;;;;;5035828;28;20075;-89
2021/01/31 00:42:37;;;;;;;6.82;6.10;;;3.50;99.90;;;;;;5035870;28;20021;-89
2021/01/31 00:45:07;;;;;;;7.50;6.70;;;3.50;99.90;;;;;;5035894;28;20053;-88
2021/01/31 00:47:33;;;;;;;7.40;6.57;;;3.50;99.90;;;;;;5035275;28;20021;-88
2021/01/31 00:49:58;;;;;;;8.23;7.43;;;3.50;99.90;;;;;;5035113;28;20388;-89
2021/01/31 00:52:24;;;;;;;9.27;8.27;;;3.50;99.90;;;;;;5035429;28;20056;-88
2021/01/31 00:54:50;;;;;;;8.63;7.30;;;3.30;99.90;;;;;;5039000;28;20021;-89
2021/01/31 00:57:17;;;;;;;9.13;8.20;;;3.20;99.90;;;;;;5038928;28;20025;-88
2021/01/31 00:59:42;;;;;;;8.75;7.72;;;3.20;99.90;;;;;;5038807;28;20048;-88
2021/01/31 01:02:13;;;;;;;8.75;7.85;;;3.30;99.90;;;;;;5038736;28;20025;-88
2021/01/31 01:04:41;;;;;;;7.63;6.55;;;3.40;99.90;;;;;;5038752;28;20112;-88
2021/01/31 01:07:07;;;;;;;6.85;6.15;;;3.50;99.90;;;;;;5038647;28;20022;-88
2021/01/31 01:09:33;;;;;;;7.57;6.53;;;3.40;99.90;;;;;;5038599;28;20027;-88
2021/01/31 01:11:59;;;;;;;7.90;7.10;;;3.50;99.90;;;;;;5056481;28;20100;-88
2021/01/31 01:14:25;;;;;;;8.38;7.35;;;3.40;99.90;;;;;;5038552;28;20032;-88
2021/01/31 01:16:51;;;;;;;7.72;6.85;;;3.40;99.90;;;;;;5038460;28;20392;-88
2021/01/31 01:19:17;;;;;;;7.15;6.40;;;3.50;99.90;;;;;;5056623;28;20032;-88
2021/01/31 01:21:42;;;;;;;7.50;6.60;;;3.50;99.90;;;;;;5038255;28;20045;-88
2021/01/31 01:24:08;;;;;;;7.20;6.50;;;3.50;99.90;;;;;;5056529;28;20033;-89
2021/01/31 01:26:34;;;;;;;7.05;6.35;;;3.40;99.90;;;;;;5038317;28;20040;-88
2021/01/31 01:29:00;;;;;;;8.07;6.68;;;3.40;99.90;;;;;;5038276;28;20495;-88
2021/01/31 01:31:26;;;;;;;7.05;6.35;;;3.50;99.90;;;;;;5038246;28;20074;-88
2021/01/31 01:33:51;;;;;;;7.20;6.30;;;3.50;99.90;;;;;;5038080;28;20059;-88
2021/01/31 01:36:18;;;;;;;8.25;7.30;;;3.50;99.90;;;;;;5038033;28;20041;-88
2021/01/31 01:38:44;;;;;;;7.88;7.07;;;3.50;99.90;;;;;;5038094;28;20032;-88
2021/01/31 01:41:10;;;;;;;8.65;7.63;;;3.50;99.90;;;;;;5037907;28;20025;-88
2021/01/31 01:43:36;;;;;;;7.07;6.38;;;3.50;99.90;;;;;;5038023;28;20029;-88
2021/01/31 01:46:37;;;;;;;7.28;6.57;;;3.50;99.90;;;;;;5038140;28;20027;-88
2021/01/31 01:49:11;;;;;;;8.80;7.53;;;3.40;99.90;;;;;;5038056;28;20021;-88
2021/01/31 01:51:47;;;;;;;8.00;6.40;;;3.50;99.90;;;;;;5038441;28;20484;-88
2021/01/31 01:54:19;;;;;;;7.68;6.40;;;3.40;99.90;;;;;;5037886;28;20025;-88
2021/01/31 01:56:51;;;;;;;9.85;7.55;;;3.50;99.90;;;;;;5055642;28;20028;-88
2021/01/31 01:59:17;;;;;;;8.52;7.60;;;3.60;99.90;;;;;;5037766;28;20028;-89
2021/01/31 02:01:58;;;;;;;9.98;7.72;;;3.50;99.90;;;;;;5037679;28;20121;-88
2021/01/31 02:04:23;;;;;;;8.85;7.72;;;3.50;99.90;;;;;;5037626;28;20032;-88
2021/01/31 02:06:49;;;;;;;9.40;8.40;;;3.50;99.90;;;;;;5037629;28;20025;-88
2021/01/31 02:09:15;;;;;;;9.43;8.00;;;3.50;99.90;;;;;;5055453;28;20027;-88
2021/01/31 02:11:41;;;;;;;10.40;8.77;;;3.60;99.90;;;;;;5037538;28;20477;-88
2021/01/31 02:14:10;;;;;;;9.68;8.60;;;3.60;99.90;;;;;;5037860;28;20111;-88
2021/01/31 02:16:41;;;;;;;9.98;8.50;;;3.50;99.90;;;;;;5037412;28;20116;-88
2021/01/31 02:19:38;;;;;;;10.02;8.40;;;3.50;99.90;;;;;;5037433;28;20041;-88
2021/01/31 02:22:37;;;;;;;9.75;8.45;;;3.50;99.90;;;;;;5037136;28;20132;-88
2021/01/31 02:25:22;;;;;;;9.48;8.18;;;3.60;99.90;;;;;;5037286;28;20040;-89
2021/01/31 02:28:35;;;;;;;9.77;8.63;;;3.60;99.90;;;;;;5037259;28;20033;-88
2021/01/31 02:31:31;;;;;;;9.32;7.72;;;3.50;99.90;;;;;;4955375;29;20027;-88
2021/01/31 02:34:02;;;;;;;8.40;7.50;;;3.60;99.90;;;;;;5055384;28;20112;-88
2021/01/31 02:37:08;;;;;;;10.48;8.55;;;3.80;99.90;;;;;;5054915;28;20354;-88
2021/01/31 02:39:54;;;;;;;12.57;9.63;;;3.70;99.90;;;;;;5037203;28;20436;-88
2021/01/31 02:42:25;;;;;;;11.75;10.40;;;3.60;99.90;;;;;;5036367;28;20037;-88
2021/01/31 02:45:09;;;;;;;12.20;10.50;;;3.60;99.90;;;;;;5036997;28;20029;-88
2021/01/31 02:47:46;;;;;;;14.27;11.13;;;3.50;99.90;;;;;;5036990;28;20029;-88
2021/01/31 02:50:19;;;;;;;12.55;10.70;;;3.50;99.90;;;;;;5036863;28;20021;-88
2021/01/31 02:52:52;;;;;;;14.05;11.65;;;3.50;99.90;;;;;;5036859;28;20163;-88
2021/01/31 02:55:26;;;;;;;13.18;11.60;;;3.40;99.90;;;;;;5036777;28;20115;-88
2021/01/31 02:58:04;;;;;;;12.27;10.88;;;3.40;99.90;;;;;;5036771;28;20028;-88
2021/01/31 03:00:55;;;;;;;14.32;10.90;;;3.30;99.90;;;;;;5054714;28;20028;-88
2021/01/31 03:03:30;;;;;;;12.68;11.13;;;3.30;99.90;;;;;;5028595;28;20068;-88
2021/01/31 03:06:00;;;;;;;13.70;11.38;;;3.30;99.90;;;;;;5036639;28;20538;-88
2021/01/31 03:08:55;;;;;;;12.45;10.85;;;3.40;99.90;;;;;;5036558;28;20025;-88
2021/01/31 03:11:37;;;;;;;15.05;11.70;;;3.30;99.90;;;;;;5052876;28;20382;-88
2021/01/31 03:14:14;;;;;;;13.90;11.93;;;3.40;99.90;;;;;;5036352;28;20155;-88
2021/01/31 03:17:26;;;;;;;19.08;12.20;;;3.30;99.90;;;;;;5035758;28;20119;-88
2021/01/31 03:19:53;;;;;;;16.40;12.10;;;3.30;99.90;;;;;;5021858;28;20041;-88
2021/01/31 03:22:47;;;;;;;14.18;11.27;;;3.20;99.90;;;;;;5053868;28;20045;-88
2021/01/31 03:25:19;;;;;;;14.00;11.38;;;3.20;99.90;;;;;;5054415;28;20017;-88
2021/01/31 03:27:45;;;;;;;17.35;13.07;;;3.20;99.90;;;;;;5036180;28;20052;-88
2021/01/31 03:30:13;;;;;;;23.90;14.88;;;3.20;99.90;;;;;;5053992;28;20052;-87
2021/01/31 03:32:46;;;;;;;36.90;15.32;;;3.20;99.90;;;;;;5035939;28;20032;-87
2021/01/31 03:35:18;;;;;;;37.45;15.73;;;3.10;99.90;;;;;;5036072;28;20025;-87
2021/01/31 03:38:03;;;;;;;23.15;16.83;;;3.10;99.90;;;;;;5035971;28;20489;-87
2021/01/31 03:40:30;;;;;;;29.75;15.50;;;3.10;99.90;;;;;;5053690;28;20021;-87
2021/01/31 03:42:55;;;;;;;27.42;16.48;;;3.10;99.90;;;;;;5035836;28;20036;-87
2021/01/31 03:45:32;;;;;;;26.80;16.05;;;3.00;99.90;;;;;;5035977;28;20384;-88
2021/01/31 03:48:12;;;;;;;71.75;16.02;;;3.00;99.90;;;;;;5054004;28;20021;-88
2021/01/31 03:50:38;;;;;;;45.42;16.75;;;3.10;99.90;;;;;;5053694;28;20045;-87
2021/01/31 03:53:04;;;;;;;27.30;15.70;;;3.20;99.90;;;;;;5035707;28;20060;-88
2021/01/31 03:55:30;;;;;;;39.13;15.15;;;3.10;99.90;;;;;;5035710;28;20028;-88
2021/01/31 03:58:06;;;;;;;30.60;15.77;;;3.10;99.90;;;;;;5035734;28;20511;-88
2021/01/31 04:00:37;;;;;;;68.45;17.63;;;3.10;99.90;;;;;;5053400;28;20028;-88
2021/01/31 04:03:18;;;;;;;31.30;16.42;;;3.10;99.90;;;;;;5035611;28;20469;-87
2021/01/31 04:06:02;;;;;;;44.15;17.23;;;3.20;99.90;;;;;;5053456;28;20025;-88
2021/01/31 04:08:31;;;;;;;31.00;15.50;;;3.40;99.90;;;;;;5053443;28;20465;-88
2021/01/31 04:10:56;;;;;;;38.22;15.70;;;3.40;99.90;;;;;;5035534;28;20083;-88
2021/01/31 04:13:22;;;;;;;46.95;16.27;;;3.50;99.90;;;;;;5035513;28;20056;-88
2021/01/31 04:15:54;;;;;;;73.93;16.40;;;3.40;99.90;;;;;;5035496;28;20025;-87
2021/01/31 04:18:21;;;;;;;130.10;16.83;;;3.30;99.90;;;;;;5035336;28;20029;-88
2021/01/31 04:20:48;;;;;;;26.70;15.73;;;3.20;99.90;;;;;;5035322;28;20033;-88
2021/01/31 04:23:15;;;;;;;20.65;15.20;;;3.20;99.90;;;;;;5035240;28;20102;-88
2021/01/31 04:25:41;;;;;;;92.38;18.13;;;3.20;99.90;;;;;;5035260;28;20021;-88
2021/01/31 04:28:13;;;;;;;26.83;16.17;;;3.20;99.90;;;;;;5054851;28;20028;-88
2021/01/31 04:30:40;;;;;;;73.40;16.65;;;3.30;99.90;;;;;;5039398;28;20116;-87
2021/01/31 04:33:06;;;;;;;107.93;16.88;;;3.20;99.90;;;;;;5057309;28;20029;-88
2021/01/31 04:35:32;;;;;;;39.00;17.55;;;3.20;99.90;;;;;;5039434;28;20503;-88
2021/01/31 04:37:59;;;;;;;192.00;18.67;;;3.20;99.90;;;;;;5039301;28;20052;-87
2021/01/31 04:40:25;;;;;;;58.80;16.40;;;3.30;99.90;;;;;;5057336;28;20025;-88
2021/01/31 04:42:51;;;;;;;188.13;17.58;;;3.20;99.90;;;;;;5039118;28;20082;-88
2021/01/31 04:45:17;;;;;;;80.05;17.20;;;3.30;99.90;;;;;;5039063;28;20055;-88
2021/01/31 04:48:00;;;;;;;57.78;17.25;;;3.40;99.90;;;;;;5057251;28;20021;-88
2021/01/31 04:50:52;;;;;;;75.00;17.35;;;3.40;99.90;;;;;;5056991;28;20020;-88
2021/01/31 04:53:44;;;;;;;90.45;19.13;;;3.30;99.90;;;;;;5039903;28;20479;-88
2021/01/31 04:56:34;;;;;;;32.30;17.65;;;3.30;99.90;;;;;;5039001;28;20032;-88
2021/01/31 04:59:28;;;;;;;39.50;16.00;;;3.30;99.90;;;;;;5038909;28;20041;-88
2021/01/31 05:02:16;;;;;;;78.30;17.15;;;3.30;99.90;;;;;;5030453;28;20045;-88
2021/01/31 05:04:54;;;;;;;126.57;18.55;;;3.20;99.90;;;;;;5056708;28;20029;-88
2021/01/31 05:07:36;;;;;;;45.00;18.48;;;3.20;99.90;;;;;;5038795;28;20495;-88
2021/01/31 05:10:05;;;;;;;60.72;19.48;;;3.10;99.90;;;;;;5038800;28;20071;-88
2021/01/31 05:12:49;;;;;;;110.45;20.25;;;3.20;99.90;;;;;;5038737;28;20104;-88
2021/01/31 05:15:27;;;;;;;131.30;19.95;;;3.10;99.90;;;;;;5038617;28;20025;-88
2021/01/31 05:17:57;;;;;;;176.57;21.25;;;3.20;99.90;;;;;;5038651;28;20032;-88
2021/01/31 05:20:28;;;;;;;103.07;21.27;;;3.20;99.90;;;;;;5038405;28;20120;-88
2021/01/31 05:22:58;;;;;;;89.10;20.33;;;3.10;99.90;;;;;;5038401;28;20123;-88
2021/01/31 05:25:35;;;;;;;107.18;19.08;;;3.10;99.90;;;;;;5038508;28;20449;-88
2021/01/31 05:28:02;;;;;;;149.48;19.27;;;3.20;99.90;;;;;;5038454;28;20132;-88
2021/01/31 05:30:32;;;;;;;87.40;19.35;;;3.10;99.90;;;;;;5038371;28;20037;-87
2021/01/31 05:33:03;;;;;;;127.50;19.40;;;3.00;99.90;;;;;;5038322;28;20064;-88
2021/01/31 05:35:32;;;;;;;109.20;20.27;;;2.90;99.90;;;;;;5038291;28;20087;-88
2021/01/31 05:37:57;;;;;;;34.17;19.27;;;2.90;99.90;;;;;;5038042;28;20029;-88
2021/01/31 05:40:33;;;;;;;95.63;20.70;;;3.00;99.90;;;;;;5037646;28;20031;-88
2021/01/31 05:42:59;;;;;;;105.80;21.13;;;3.00;99.90;;;;;;5038162;28;20021;-88
2021/01/31 05:45:34;;;;;;;86.70;19.73;;;2.90;99.90;;;;;;5037983;28;20539;-88
2021/01/31 05:48:14;;;;;;;46.42;20.05;;;2.90;99.90;;;;;;5038042;28;20074;-88
2021/01/31 05:50:43;;;;;;;25.73;18.27;;;3.00;99.90;;;;;;5038010;28;20497;-88
2021/01/31 05:53:32;;;;;;;46.53;17.10;;;3.00;99.90;;;;;;5037869;28;20028;-88
2021/01/31 05:56:25;;;;;;;32.13;19.55;;;3.00;99.90;;;;;;5037927;28;20115;-88
2021/01/31 05:58:58;;;;;;;26.25;17.08;;;3.00;99.90;;;;;;5037788;28;20032;-88
2021/01/31 06:01:25;;;;;;;29.42;17.77;;;3.00;99.90;;;;;;5055590;28;20025;-88
2021/01/31 06:03:51;;;;;;;23.77;17.83;;;3.10;99.90;;;;;;5055587;28;20043;-88
2021/01/31 06:06:20;;;;;;;26.80;17.55;;;3.10;99.90;;;;;;5055569;28;20112;-88
2021/01/31 06:08:48;;;;;;;29.90;19.10;;;3.10;99.90;;;;;;5037653;28;20429;-88
2021/01/31 06:11:28;;;;;;;26.98;17.20;;;3.10;99.90;;;;;;5038095;28;20048;-87
2021/01/31 06:14:14;;;;;;;28.88;18.67;;;3.20;99.90;;;;;;5037472;28;20028;-88
2021/01/31 06:16:42;;;;;;;24.52;17.60;;;3.20;99.90;;;;;;5037585;28;20029;-87
2021/01/31 06:19:18;;;;;;;24.98;18.17;;;3.10;99.90;;;;;;5037416;28;20033;-87
2021/01/31 06:21:46;;;;;;;33.05;19.70;;;3.20;99.90;;;;;;5054923;28;20049;-87
2021/01/31 06:24:48;;;;;;;39.58;22.02;;;3.10;99.90;;;;;;5037287;28;20029;-88
2021/01/31 06:27:36;;;;;;;57.55;20.23;;;3.30;99.90;;;;;;4977748;28;20069;-87
2021/01/31 06:30:25;;;;;;;43.47;18.48;;;3.30;99.90;;;;;;5051993;28;20029;-87
2021/01/31 06:32:53;;;;;;;30.40;18.13;;;3.10;99.90;;;;;;5037452;28;20381;-87
2021/01/31 06:35:22;;;;;;;32.22;20.25;;;3.10;99.90;;;;;;5055064;28;20068;-87
2021/01/31 06:38:13;;;;;;;29.63;19.20;;;3.20;99.90;;;;;;5037026;28;20544;-88
2021/01/31 06:41:07;;;;;;;34.50;19.95;;;3.20;99.90;;;;;;5055177;28;20021;-87
2021/01/31 06:43:42;;;;;;;28.15;19.02;;;3.20;99.90;;;;;;5054936;28;20021;-88
2021/01/31 06:46:37;;;;;;;29.60;19.95;;;3.10;99.90;;;;;;5037094;28;20021;-87
2021/01/31 06:49:28;;;;;;;38.47;21.33;;;3.20;99.90;;;;;;5036775;28;20025;-88
2021/01/31 06:52:16;;;;;;;29.50;18.80;;;3.10;99.90;;;;;;5035877;28;20025;-87
2021/01/31 06:55:03;;;;;;;30.00;19.73;;;3.20;99.90;;;;;;5054672;28;20025;-87
2021/01/31 06:57:56;;;;;;;36.78;19.65;;;3.10;99.90;;;;;;5036662;28;20025;-88
2021/01/31 07:00:41;;;;;;;32.10;19.42;;;3.20;99.90;;;;;;5036623;28;20481;-88
2021/01/31 07:03:16;;;;;;;;;;;3.30;99.90;;;;;;5054944;28;20108;-88
2021/01/31 07:06:09;;;;;;;34.92;18.85;;;3.30;99.90;;;;;;5036564;28;20000;-87
2021/01/31 07:09:12;;;;;;;38.30;18.95;;;3.20;99.90;;;;;;5054405;28;20028;-88
2021/01/31 07:11:41;;;;;;;30.58;18.15;;;3.10;99.90;;;;;;5036385;28;20032;-88
2021/01/31 07:14:22;;;;;;;30.08;18.80;;;3.20;99.90;;;;;;5036406;28;20029;-88
2021/01/31 07:17:16;;;;;;;37.05;20.80;;;3.20;99.90;;;;;;5036339;28;20472;-87
2021/01/31 07:20:00;;;;;;;37.50;20.52;;;3.20;99.90;;;;;;5054195;28;20028;-88
2021/01/31 07:22:37;;;;;;;35.00;21.15;;;3.30;99.90;;;;;;5036026;28;20041;-87
2021/01/31 07:25:06;;;;;;;41.53;21.75;;;3.20;99.90;;;;;;5054338;28;20041;-88
2021/01/31 07:27:54;;;;;;;31.17;20.13;;;3.10;99.90;;;;;;5036184;28;20037;-87
2021/01/31 07:30:41;;;;;;;35.97;20.70;;;3.00;99.90;;;;;;5053980;28;20116;-87
2021/01/31 07:33:17;;;;;;;39.58;19.98;;;3.00;99.90;;;;;;5053917;28;20021;-87
2021/01/31 07:35:48;;;;;;;45.05;20.77;;;3.00;99.90;;;;;;5036042;28;20047;-87
2021/01/31 07:38:37;;;;;;;32.97;21.95;;;3.00;99.90;;;;;;5036043;28;20394;-87
2021/01/31 07:41:04;;;;;;;40.22;19.75;;;3.10;99.90;;;;;;5008567;28;20530;-87
2021/01/31 07:43:35;;;;;;;38.03;21.60;;;3.00;99.90;;;;;;5053757;28;20052;-87
2021/01/31 07:46:05;;;;;;;42.17;21.08;;;3.10;99.90;;;;;;5035785;28;20025;-87
2021/01/31 07:48:33;;;;;;;37.38;20.17;;;3.10;99.90;;;;;;5035787;28;20028;-87
2021/01/31 07:51:02;;;;;;;37.25;19.08;;;3.00;99.90;;;;;;5035561;28;20029;-87
2021/01/31 07:53:53;;;;;;;31.52;20.48;;;3.00;99.90;;;;;;5035699;28;20033;-87
2021/01/31 07:56:33;;;;;;;28.45;19.38;;;3.10;99.90;;;;;;5053205;28;20045;-88
2021/01/31 07:59:09;;;;;;;28.77;19.98;;;3.10;99.90;;;;;;5035730;28;20025;-87
2021/01/31 08:01:40;;;;;;;35.08;20.67;;;3.00;99.90;;;;;;5035373;28;20029;-88
2021/01/31 08:04:15;;;;;;;26.30;18.92;;;3.00;99.90;;;;;;5035601;28;20032;-87
2021/01/31 08:06:57;;;;;;;28.05;19.23;;;3.00;99.90;;;;;;5035537;28;20083;-87
2021/01/31 08:09:26;;;;;;;27.90;19.75;;;3.00;99.90;;;;;;5053432;28;20108;-87
2021/01/31 08:11:57;;;;;;;32.92;21.10;;;3.00;99.90;;;;;;5035473;28;20029;-86
2021/01/31 08:15:00;;;;;;;30.10;19.08;;;3.00;99.90;;;;;;5053303;28;20534;-86
2021/01/31 08:17:55;;;;;;;30.45;20.13;;;3.10;99.90;;;;;;5035460;28;20025;-86
2021/01/31 08:20:27;;;;;;;30.98;19.35;;;3.10;99.90;;;;;;5029669;28;20029;-86
2021/01/31 08:22:54;;;;;;;32.80;20.33;;;3.00;99.90;;;;;;5053016;28;20493;-87
2021/01/31 08:25:25;;;;;;;27.40;18.67;;;3.00;99.90;;;;;;5053285;28;20021;-86
2021/01/31 08:28:02;;;;;;;30.67;20.52;;;3.00;99.90;;;;;;5035356;28;20025;-86
2021/01/31 08:30:30;;;;;;;28.35;19.63;;;3.00;99.90;;;;;;5035658;28;20472;-87
2021/01/31 08:32:59;;;;;;;29.30;19.45;;;3.10;99.90;;;;;;5035272;28;20021;-86
2021/01/31 08:35:28;;;;;;;28.67;18.90;;;3.00;99.90;;;;;;5035258;28;20025;-86
2021/01/31 08:38:16;;;;;;;30.23;21.02;;;3.00;99.90;;;;;;5053099;28;20031;-86
2021/01/31 08:41:00;;;;;;;28.08;19.55;;;3.00;99.90;;;;;;5052919;28;20036;-87
2021/01/31 08:43:35;;;;;;;25.48;18.25;;;3.10;99.90;;;;;;5035028;28;20017;-87
2021/01/31 08:46:09;;;;;;;28.30;18.52;;;3.10;99.90;;;;;;5053058;28;20086;-87
2021/01/31 08:48:36;;;;;;;26.33;18.00;;;3.20;99.90;;;;;;5036029;28;20025;-87
2021/01/31 08:51:22;;;;;;;40.58;24.55;;;3.20;99.90;;;;;;5035223;28;20032;-87
2021/01/31 08:54:06;;;;;;;31.00;19.15;;;3.20;99.90;;;;;;5052953;28;20496;-87
2021/01/31 08:56:45;;;;;;;27.08;18.33;;;3.20;99.90;;;;;;5035043;28;20060;-87
2021/01/31 08:59:17;;;;;;;31.17;18.08;;;3.20;99.90;;;;;;5035032;28;20033;-86
2021/01/31 09:01:46;;;;;;;29.25;20.27;;;3.10;99.90;;;;;;5034857;28;20572;-87
2021/01/31 09:04:17;;;;;;;30.73;20.92;;;3.20;99.90;;;;;;5034959;28;20017;-86
2021/01/31 09:06:46;;;;;;;31.88;19.73;;;3.20;99.90;;;;;;5034891;28;20025;-86
2021/01/31 09:09:44;;;;;;;38.88;28.67;;;3.20;99.90;;;;;;5053048;28;20492;-87
2021/01/31 09:12:13;;;;;;;39.63;27.10;;;3.10;99.90;;;;;;5032018;28;20384;-87
2021/01/31 09:14:41;;;;;;;37.25;24.20;;;3.20;99.90;;;;;;5036912;28;20142;-86
2021/01/31 09:17:27;;;;;;;30.20;21.08;;;3.20;99.90;;;;;;5038654;28;20025;-86
2021/01/31 09:20:15;;;;;;;33.95;21.30;;;3.30;99.90;;;;;;5056386;28;20096;-86
2021/01/31 09:22:44;;;;;;;38.17;25.25;;;3.40;99.90;;;;;;5038382;28;20045;-87
2021/01/31 09:25:15;;;;;;;35.42;22.48;;;3.30;99.90;;;;;;5038460;28;20492;-86
2021/01/31 09:28:11;;;;;;;33.60;21.73;;;3.30;99.90;;;;;;5056323;28;20012;-86
2021/01/31 09:30:39;;;;;;;37.97;22.70;;;3.40;99.90;;;;;;5038279;28;20052;-86
2021/01/31 09:33:12;;;;;;;37.15;23.58;;;3.40;99.90;;;;;;5056258;28;20075;-86
2021/01/31 09:35:39;;;;;;;34.95;22.67;;;3.40;99.90;;;;;;5038484;28;20036;-87
2021/01/31 09:38:13;;;;;;;35.33;23.25;;;3.50;99.90;;;;;;5038309;28;20021;-87
2021/01/31 09:40:40;;;;;;;;;;;3.50;99.90;;;;;;5038703;28;20021;-86
2021/01/31 09:43:15;;;;;;;41.35;25.05;;;3.40;99.90;;;;;;5038314;28;20376;-86
2021/01/31 09:45:44;;;;;;;32.15;20.58;;;3.40;99.90;;;;;;5056420;28;20096;-86
2021/01/31 09:48:15;;;;;;;33.67;21.85;;;3.40;99.90;;;;;;5038211;28;20111;-86
2021/01/31 09:50:45;;;;;;;32.90;20.35;;;3.50;99.90;;;;;;5038721;28;20434;-86
2021/01/31 09:53:45;;;;;;;30.27;19.88;;;3.60;99.90;;;;;;5038122;28;20485;-87
2021/01/31 09:56:32;;;;;;;73.57;43.05;;;3.60;99.90;;;;;;5035365;28;20461;-86
2021/01/31 09:58:58;;;;;;;43.55;26.63;;;3.50;99.90;;;;;;5037969;28;20037;-86
2021/01/31 10:01:29;;;;;;;29.23;20.65;;;3.60;99.90;;;;;;5037994;28;20037;-87
2021/01/31 10:04:04;;;;;;;43.88;28.17;;;3.50;99.90;;;;;;5055765;28;20021;-87
2021/01/31 10:06:40;;;;;;;;;;;3.40;99.90;;;;;;5038770;28;20021;-86
2021/01/31 10:09:05;;;;;;;33.63;22.48;;;3.40;99.90;;;;;;5038042;28;19905;-86
2021/01/31 10:11:33;;;;;;;32.47;21.42;;;3.40;99.90;;;;;;5038143;28;20029;-86
2021/01/31 10:14:01;;;;;;;36.65;22.60;;;3.40;99.90;;;;;;5037619;28;20044;-86
2021/01/31 10:16:30;;;;;;;32.00;21.85;;;3.40;99.90;;;;;;5038514;28;20029;-86
2021/01/31 10:19:16;;;;;;;34.05;22.13;;;3.30;99.90;;;;;;5037656;28;20025;-86
2021/01/31 10:21:56;;;;;;;34.97;21.70;;;3.30;99.90;;;;;;5055635;28;20473;-86
2021/01/31 10:24:31;;;;;;;31.63;21.00;;;3.30;99.90;;;;;;5037560;28;20033;-87
2021/01/31 10:27:04;;;;;;;34.35;22.40;;;3.30;99.90;;;;;;5055488;28;20036;-87
2021/01/31 10:29:32;;;;;;;32.78;22.67;;;3.50;99.90;;;;;;5037432;28;20024;-86
2021/01/31 10:32:22;;;;;;;24.05;16.63;;;3.50;99.90;;;;;;5037430;28;20039;-86
2021/01/31 10:34:48;;;;;;;25.40;17.60;;;3.40;99.90;;;;;;5037904;28;20052;-86
2021/01/31 10:37:38;;;;;;;36.25;24.30;;;3.50;99.90;;;;;;5055635;28;20064;-87
2021/01/31 10:40:07;;;;;;;28.25;19.42;;;3.60;99.90;;;;;;5054822;28;20099;-87
2021/01/31 10:42:33;;;;;;;23.67;16.92;;;3.70;99.90;;;;;;5037355;28;20028;-86
2021/01/31 10:45:12;;;;;;;23.05;16.23;;;3.80;99.90;;;;;;5037487;28;20108;-86
2021/01/31 10:47:37;;;;;;;24.40;17.92;;;3.90;99.90;;;;;;5036991;28;20463;-85
2021/01/31 10:50:07;;;;;;;24.92;16.52;;;3.90;99.90;;;;;;5037097;28;20024;-86
2021/01/31 10:52:33;;;;;;;21.45;15.38;;;4.00;99.90;;;;;;5036869;28;20025;-86
2021/01/31 10:54:59;;;;;;;25.63;15.73;;;4.00;99.90;;;;;;5054935;28;20427;-86
2021/01/31 10:57:25;;;;;;;22.02;16.10;;;4.00;99.90;;;;;;5036861;28;20025;-86
2021/01/31 10:59:51;;;;;;;21.95;15.13;;;4.00;99.90;;;;;;5054776;28;20104;-86
2021/01/31 11:02:17;;;;;;;20.50;14.95;;;4.00;99.90;;;;;;5036607;28;20036;-86
2021/01/31 11:04:43;;;;;;;21.48;15.32;;;4.00;99.90;;;;;;5054662;28;20032;-86
2021/01/31 11:07:09;;;;;;;18.05;13.27;;;4.00;99.90;;;;;;5054829;28;20025;-87
2021/01/31 11:09:35;;;;;;;18.98;13.75;;;4.00;99.90;;;;;;5036678;28;20028;-86
2021/01/31 11:12:02;;;;;;;21.50;15.75;;;4.10;99.90;;;;;;5054311;28;20017;-86
2021/01/31 11:14:28;;;;;;;20.77;14.65;;;4.00;99.90;;;;;;5036228;28;20052;-86
2021/01/31 11:16:54;;;;;;;18.63;13.73;;;4.00;99.90;;;;;;5054620;28;20029;-86
2021/01/31 11:19:19;;;;;;;14.20;11.45;;;4.00;99.90;;;;;;5054227;28;20036;-86
2021/01/31 11:22:08;;;;;;;19.55;13.15;;;3.90;99.90;;;;;;5111618;27;20940;-86
2021/01/31 11:24:34;;;;;;;27.95;19.45;;;3.90;99.90;;;;;;5093390;28;20035;-86
2021/01/31 11:27:00;;;;;;;23.00;17.15;;;3.90;99.90;;;;;;5093082;28;20020;-86
2021/01/31 11:29:26;;;;;;;56.25;32.70;;;4.00;99.90;;;;;;5111180;28;20020;-86
2021/01/31 11:31:51;;;;;;;33.97;24.70;;;3.90;99.90;;;;;;5093297;28;20042;-86
2021/01/31 11:34:17;;;;;;;20.73;14.95;;;3.90;99.90;;;;;;5111208;28;20555;-86
2021/01/31 11:36:43;;;;;;;15.90;12.23;;;3.90;99.90;;;;;;5111119;28;20030;-86
2021/01/31 11:39:09;;;;;;;21.63;15.90;;;3.90;99.90;;;;;;5093120;28;20031;-86
2021/01/31 11:41:36;;;;;;;17.25;13.13;;;3.90;99.90;;;;;;5111007;28;20042;-87
2021/01/31 11:44:04;;;;;;;19.88;15.23;;;3.90;99.90;;;;;;5111176;28;20076;-86
2021/01/31 11:46:30;;;;;;;22.55;16.75;;;3.90;99.90;;;;;;5092728;28;20479;-87
2021/01/31 11:48:56;;;;;;;20.73;14.52;;;4.00;99.90;;;;;;5093011;28;20023;-86
2021/01/31 11:51:22;;;;;;;18.85;14.10;;;4.00;99.90;;;;;;5092947;28;20475;-87
2021/01/31 11:53:47;;;;;;;17.75;13.80;;;3.90;99.90;;;;;;5092627;28;20120;-86
2021/01/31 11:56:13;;;;;;;19.33;14.23;;;3.90;99.90;;;;;;5092526;28;20474;-86
2021/01/31 11:58:39;;;;;;;19.00;15.05;;;3.90;99.90;;;;;;5092523;28;20028;-86
2021/01/31 12:01:05;;;;;;;18.17;13.45;;;4.00;99.90;;;;;;5110673;28;20028;-86
2021/01/31 12:03:31;;;;;;;20.48;16.77;;;4.10;99.90;;;;;;5092427;28;20433;-86
2021/01/31 12:05:57;;;;;;;20.42;15.00;;;4.10;99.90;;;;;;5092624;28;20028;-86
2021/01/31 12:08:22;;;;;;;39.83;26.88;;;4.00;99.90;;;;;;5092435;28;20131;-86
2021/01/31 12:10:48;;;;;;;28.27;19.90;;;3.90;99.90;;;;;;5092679;28;20028;-86
2021/01/31 12:13:14;;;;;;;54.72;32.90;;;4.00;99.90;;;;;;5092441;28;20042;-86
2021/01/31 12:15:39;;;;;;;81.72;45.72;;;4.00;99.90;;;;;;5092188;28;20035;-86
2021/01/31 12:18:05;;;;;;;70.78;41.67;;;4.00;99.90;;;;;;5092264;28;20391;-86
2021/01/31 12:20:31;;;;;;;22.63;15.98;;;4.00;99.90;;;;;;5110262;28;20368;-86
2021/01/31 12:22:57;;;;;;;19.95;14.98;;;4.10;99.90;;;;;;5092086;28;20050;-86
2021/01/31 12:25:23;;;;;;;46.60;30.65;;;4.10;99.90;;;;;;5110620;28;20020;-86
2021/01/31 12:27:50;;;;;;;22.40;16.70;;;4.10;99.90;;;;;;5091914;28;20028;-86
2021/01/31 12:30:28;;;;;;;18.95;15.43;;;4.10;99.90;;;;;;5091874;28;20127;-86
2021/01/31 12:32:58;;;;;;;20.30;15.43;;;4.00;99.90;;;;;;5081401;28;20025;-87
2021/01/31 12:35:24;;;;;;;20.58;17.08;;;4.00;99.90;;;;;;5078484;28;20026;-87
2021/01/31 12:37:50;;;;;;;26.80;19.05;;;4.00;99.90;;;;;;5079069;28;20023;-86
2021/01/31 12:40:16;;;;;;;22.73;17.00;;;4.10;99.90;;;;;;5097264;28;20450;-86
2021/01/31 12:42:46;;;;;;;21.55;16.38;;;4.00;99.90;;;;;;5079329;28;20438;-89
2021/01/31 12:45:13;;;;;;;23.55;15.02;;;4.00;99.90;;;;;;5078877;28;20027;-87
2021/01/31 12:47:39;;;;;;;21.70;15.30;;;4.00;99.90;;;;;;5097348;28;20371;-87
2021/01/31 12:50:06;;;;;;;22.88;16.15;;;4.00;99.90;;;;;;5078903;28;20033;-88
2021/01/31 12:52:51;;;;;;;;;;;;;;;;;;;;;
2021/01/31 12:55:17;;;;;;;22.60;15.27;;;4.10;99.90;;;;;;5099004;28;20032;-87
2021/01/31 12:57:43;;;;;;;19.50;14.95;;;4.00;99.90;;;;;;5079467;28;20062;-86
2021/01/31 13:00:14;;;;;;;21.95;15.98;;;4.00;99.90;;;;;;5078765;28;20024;-87
2021/01/31 13:02:40;;;;;;;24.13;18.05;;;4.00;99.90;;;;;;5078935;28;20027;-86
2021/01/31 13:05:07;;;;;;;23.45;17.05;;;3.90;99.90;;;;;;5078961;28;20024;-87
2021/01/31 13:07:33;;;;;;;22.80;16.92;;;3.90;99.90;;;;;;5078203;28;20077;-85
2021/01/31 13:09:59;;;;;;;22.98;17.15;;;3.90;99.90;;;;;;5078385;28;20030;-86
2021/01/31 13:12:25;;;;;;;27.70;19.73;;;3.90;99.90;;;;;;5079369;28;20103;-86
2021/01/31 13:14:51;;;;;;;25.00;17.70;;;3.90;99.90;;;;;;5078735;28;20028;-86